• Join FlightAware (Why Join?)
  • Login
  • US Flag 
07:44PM EDT


 

Airport Tracker/Info


-or-


 

Live Flight TrackerFlight Track Log ✈ EJA122 ✈ 05-Nov-2013 ✈ KMRF - KDAL

Flight Track Log - Related Links

Times and Time Zones

All times are in EST time to prevent confusion due to time zone crossing. See the EJA122 flight status page for this flight to view local times or setup timezone preferences in your user account.

Time Position Orientation Groundspeed Altitude Reporting Facility
EST Latitude Longitude Course Direction KTS MPH feet Rate Location/Type
02:22PM 30.6298 -103.3357 63° Northeast  Level Estimated
02:22PM 30.3694 -103.8453 51° Northeast 266 306 10,500  Level Albuquerque Center
02:23PM 30.6684 -103.2329 57° Northeast  Level Estimated
02:23PM 30.4189 -103.7708 52° Northeast 278 320 12,900  Level Albuquerque Center
02:24PM 30.7307 -103.1472 50° Northeast  Level FlightAware Approximate
02:24PM 30.4703 -103.6964 51° Northeast 289 333 14,700  Level Albuquerque Center
02:25PM 30.7687 -103.0440 60° Northeast  Level Estimated
02:25PM 30.5150 -103.6078 60° Northeast 308 354 16,600  Level Albuquerque Center
02:26PM 30.8281 -102.9554 52° Northeast  Level FlightAware Approximate
02:26PM 30.5589 -103.5089 63° Northeast 337 388 17,500  Level Albuquerque Center
02:27PM 30.8700 -102.8395 63° Northeast  Level Estimated
02:27PM 30.6061 -103.3978 64° Northeast 371 427 18,300  Level Albuquerque Center
02:28PM 30.6597 -103.2800 62° Northeast 404 465 19,100 840 Climbing Albuquerque Center
02:30PM 30.7344 -103.1350 59° Northeast 431 496 20,100 1,080 Climbing Albuquerque Center
02:31PM 30.7936 -103.0111 61° Northeast 436 502 21,400 1,080 Climbing Albuquerque Center
02:32PM 30.8528 -102.8883 61° Northeast 437 503 22,400 960 Climbing Albuquerque Center
02:33PM 30.9125 -102.7614 61° Northeast 444 511 23,400 840 Climbing Albuquerque Center
02:34PM 31.0131 -102.5450 61° Northeast 457 526 24,700 780 Climbing Albuquerque Center
02:35PM 31.0750 -102.4114 62° Northeast 466 536 25,500 720 Climbing Albuquerque Center
02:36PM 31.1372 -102.2750 62° Northeast 476 548 26,300 720 Climbing Albuquerque Center
02:37PM 31.2014 -102.1344 62° Northeast 490 564 27,000 780 Climbing Albuquerque Center
02:38PM 31.2792 -101.9675 61° Northeast 492 566 27,900 720 Climbing Albuquerque Center
02:39PM 31.3367 -101.8422 62° Northeast 494 568 28,500 480 Climbing Albuquerque Center
02:40PM 31.4144 -101.6722 62° Northeast 496 571 29,000 180 Climbing Albuquerque Center
02:42PM 31.4953 -101.4953 62° Northeast 513 590 29,000  Level Houston Center
02:43PM 31.5642 -101.3433 62° Northeast 524 603 29,000  Level Houston Center
02:44PM 31.6333 -101.1878 62° Northeast 534 615 29,000  Level Houston Center
02:45PM 31.7083 -101.0225 62° Northeast 526 605 29,000 300 Level Fort Worth Center
02:46PM 31.7775 -100.8689 62° Northeast 531 611 29,700 720 Climbing Fort Worth Center
02:47PM 31.8442 -100.7197 62° Northeast 521 600 30,500 780 Climbing Fort Worth Center
02:48PM 31.9042 -100.5700 65° Northeast 511 588 31,300 780 Climbing Fort Worth Center
02:49PM 31.9706 -100.4231 62° Northeast 501 577 32,100 780 Climbing Fort Worth Center
02:50PM 32.0344 -100.2806 62° Northeast 501 577 32,900 420 Climbing Fort Worth Center
02:51PM 32.0983 -100.1306 63° Northeast 496 571 33,000  Climbing Fort Worth Center
02:52PM 32.1619 -99.9778 64° Northeast 509 586 33,000  Level Fort Worth Center
02:53PM 32.2214 -99.8200 66° East 515 593 33,000  Level Fort Worth Center
02:54PM 32.2308 -99.6508 86° East 505 581 33,000 -300 Level Fort Worth Center
02:55PM 32.2217 -99.4639 93° East 510 587 32,500 -1,080 Descending Fort Worth Center
02:56PM 32.2158 -99.2944 92° East 510 587 30,900 -1,560 Descending Fort Worth Center
02:57PM 32.2100 -99.1222 92° East 516 594 29,400 -1,560 Descending Fort Worth Center
02:58PM 32.2039 -98.9528 92° East 521 600 27,800 -1,560 Descending Fort Worth Center
02:59PM 32.1975 -98.7858 93° East 516 594 26,300 -1,320 Descending Fort Worth Center
03:00PM 32.1908 -98.6186 93° East 516 594 25,200 -1,080 Descending Fort Worth Center
03:01PM 32.1861 -98.4542 92° East 511 588 24,200 -1,200 Descending Fort Worth Center
03:02PM 32.1789 -98.3117 93° East 493 567 22,800 -1,980 Descending Fort Worth Center
03:03PM 32.1736 -98.1619 92° East 478 550 20,300 -2,640 Descending Fort Worth Center
03:04PM 32.1661 -98.0047 93° East 447 514 17,600 -2,340 Descending Fort Worth Center
03:05PM 32.1625 -97.8722 92° East 413 475 15,700 -2,160 Descending Fort Worth Center
03:06PM 32.2025 -97.7422 70° East 402 463 13,300 -2,160 Descending Fort Worth Center
03:07PM 32.2381 -97.6269 70° East 392 451 11,400 -1,860 Descending Fort Worth Center
03:08PM 32.2675 -97.5289 70° East 334 384 9,600 -1,620 Descending Fort Worth Center
03:09PM 32.3197 -97.4503 52° Northeast 302 348 8,200 -1,500 Descending Fort Worth Center
03:10PM 32.3678 -97.3692 55° Northeast 297 342 6,600 -1,500 Descending Fort Worth Center
03:11PM 32.3969 -97.2806 69° East 289 333 5,200 -1,320 Descending Fort Worth Center
03:12PM 32.4239 -97.1894 71° East 289 333 4,000 -600 Descending Fort Worth Center
03:13PM 32.4489 -97.1008 71° East 282 325 4,000  Level Fort Worth Center
03:14PM 32.4736 -97.0072 73° East 289 333 4,000  Level Fort Worth Center
03:15PM 32.4983 -96.9208 71° East 283 326 4,000  Level Fort Worth Center
03:16PM 32.5503 -96.8464 50° Northeast 283 326 4,000  Level Fort Worth Center
03:17PM 32.6022 -96.7844 45° Northeast 288 331 4,000  Level Fort Worth Center
03:18PM 32.6500 -96.7167 50° Northeast 295 339 4,000  Level Dallas / Fort Worth TRACON
03:19PM 32.7167 -96.6667 32° Northeast 302 348 4,000  Level Dallas / Fort Worth TRACON
03:20PM 32.8000 -96.6667 360° North 293 337 4,000  Level Dallas / Fort Worth TRACON
03:21PM 32.8667 -96.6833 348° North 277 319 4,000  Level Dallas / Fort Worth TRACON
03:21PM 32.9000 -96.7500 301° West 268 308 4,000 -60 Level Dallas / Fort Worth TRACON
03:23PM 32.9500 -96.8500 301° West 263 303 3,900 -300 Descending Dallas / Fort Worth TRACON
03:24PM 32.9833 -96.9000 308° West 186 214 3,400 -900 Descending Dallas / Fort Worth TRACON
03:25PM 32.9500 -96.9333 220° Southwest 155 178 2,300 -780 Descending Dallas / Fort Worth TRACON
03:26PM 32.9167 -96.9167 157° South 156 180 1,900 -480 Descending Dallas / Fort Worth TRACON
03:26PM 32.8833 -96.9000 157° South 115 132 1,400 -600 Descending Dallas / Fort Worth TRACON